sensor_id;sensor_type;location;lat;lon;timestamp;P1;durP1;ratioP1;P2;durP2;ratioP2
56239;SDS011;42154;51.992;5.896;2023-01-01T00:00:45;25.95;;;15.13;;
56239;SDS011;42154;51.992;5.896;2023-01-01T00:03:12;24.73;;;13.60;;
56239;SDS011;42154;51.992;5.896;2023-01-01T00:05:39;23.15;;;14.18;;
56239;SDS011;42154;51.992;5.896;2023-01-01T00:08:05;21.33;;;12.30;;
56239;SDS011;42154;51.992;5.896;2023-01-01T00:10:31;24.90;;;11.88;;
56239;SDS011;42154;51.992;5.896;2023-01-01T00:12:57;20.83;;;12.50;;
56239;SDS011;42154;51.992;5.896;2023-01-01T00:15:24;19.80;;;11.65;;
56239;SDS011;42154;51.992;5.896;2023-01-01T00:17:51;17.60;;;10.43;;
56239;SDS011;42154;51.992;5.896;2023-01-01T00:20:17;16.20;;;8.60;;
56239;SDS011;42154;51.992;5.896;2023-01-01T00:22:43;17.40;;;8.70;;
56239;SDS011;42154;51.992;5.896;2023-01-01T00:25:10;15.60;;;8.10;;
56239;SDS011;42154;51.992;5.896;2023-01-01T00:27:42;14.10;;;7.45;;
56239;SDS011;42154;51.992;5.896;2023-01-01T00:30:09;14.02;;;7.03;;
56239;SDS011;42154;51.992;5.896;2023-01-01T00:32:35;16.42;;;7.60;;
56239;SDS011;42154;51.992;5.896;2023-01-01T00:35:01;13.13;;;6.95;;
56239;SDS011;42154;51.992;5.896;2023-01-01T00:37:27;14.65;;;7.05;;
56239;SDS011;42154;51.992;5.896;2023-01-01T00:39:53;14.32;;;6.97;;
56239;SDS011;42154;51.992;5.896;2023-01-01T00:42:18;14.23;;;5.78;;
56239;SDS011;42154;51.992;5.896;2023-01-01T00:44:44;14.30;;;5.25;;
56239;SDS011;42154;51.992;5.896;2023-01-01T00:47:10;14.05;;;6.10;;
56239;SDS011;42154;51.992;5.896;2023-01-01T00:49:36;13.45;;;5.43;;
56239;SDS011;42154;51.992;5.896;2023-01-01T00:52:02;15.25;;;4.82;;
56239;SDS011;42154;51.992;5.896;2023-01-01T00:54:27;11.77;;;4.57;;
56239;SDS011;42154;51.992;5.896;2023-01-01T00:56:53;16.02;;;4.80;;
56239;SDS011;42154;51.992;5.896;2023-01-01T00:59:19;12.73;;;5.28;;
56239;SDS011;42154;51.992;5.896;2023-01-01T01:01:45;9.90;;;3.92;;
56239;SDS011;42154;51.992;5.896;2023-01-01T01:04:11;11.43;;;5.15;;
56239;SDS011;42154;51.992;5.896;2023-01-01T01:06:37;10.63;;;4.97;;
56239;SDS011;42154;51.992;5.896;2023-01-01T01:09:03;10.15;;;4.47;;
56239;SDS011;42154;51.992;5.896;2023-01-01T01:11:30;10.77;;;4.93;;
56239;SDS011;42154;51.992;5.896;2023-01-01T01:13:56;8.93;;;3.90;;
56239;SDS011;42154;51.992;5.896;2023-01-01T01:16:26;12.80;;;4.15;;
56239;SDS011;42154;51.992;5.896;2023-01-01T01:18:55;11.35;;;3.83;;
56239;SDS011;42154;51.992;5.896;2023-01-01T01:21:23;10.70;;;3.45;;
56239;SDS011;42154;51.992;5.896;2023-01-01T01:23:50;11.18;;;3.05;;
56239;SDS011;42154;51.992;5.896;2023-01-01T01:26:19;9.02;;;2.55;;
56239;SDS011;42154;51.992;5.896;2023-01-01T01:28:46;9.32;;;2.88;;
56239;SDS011;42154;51.992;5.896;2023-01-01T01:31:13;13.15;;;2.83;;
56239;SDS011;42154;51.992;5.896;2023-01-01T01:33:38;6.18;;;1.95;;
56239;SDS011;42154;51.992;5.896;2023-01-01T01:36:06;5.07;;;2.22;;
56239;SDS011;42154;51.992;5.896;2023-01-01T01:38:34;8.02;;;2.47;;
56239;SDS011;42154;51.992;5.896;2023-01-01T01:40:59;7.40;;;2.63;;
56239;SDS011;42154;51.992;5.896;2023-01-01T01:45:58;11.30;;;2.33;;
56239;SDS011;42154;51.992;5.896;2023-01-01T01:48:28;8.48;;;2.22;;
56239;SDS011;42154;51.992;5.896;2023-01-01T01:50:58;11.88;;;2.42;;
56239;SDS011;42154;51.992;5.896;2023-01-01T01:53:24;8.50;;;2.05;;
56239;SDS011;42154;51.992;5.896;2023-01-01T01:55:55;7.38;;;2.47;;
56239;SDS011;42154;51.992;5.896;2023-01-01T01:58:24;7.90;;;2.05;;
56239;SDS011;42154;51.992;5.896;2023-01-01T02:00:51;7.13;;;2.05;;
56239;SDS011;42154;51.992;5.896;2023-01-01T02:06:16;8.40;;;2.20;;
56239;SDS011;42154;51.992;5.896;2023-01-01T02:08:44;9.10;;;2.00;;
56239;SDS011;42154;51.992;5.896;2023-01-01T02:11:10;6.15;;;1.90;;
56239;SDS011;42154;51.992;5.896;2023-01-01T02:13:37;5.85;;;1.98;;
56239;SDS011;42154;51.992;5.896;2023-01-01T02:18:40;6.00;;;1.98;;
56239;SDS011;42154;51.992;5.896;2023-01-01T02:21:16;6.38;;;2.13;;
56239;SDS011;42154;51.992;5.896;2023-01-01T02:36:54;6.20;;;1.80;;
56239;SDS011;42154;51.992;5.896;2023-01-01T02:39:24;11.90;;;2.22;;
56239;SDS011;42154;51.992;5.896;2023-01-01T02:41:53;12.55;;;3.05;;
56239;SDS011;42154;51.992;5.896;2023-01-01T02:44:22;9.23;;;2.00;;
56239;SDS011;42154;51.992;5.896;2023-01-01T02:46:50;5.20;;;2.25;;
56239;SDS011;42154;51.992;5.896;2023-01-01T02:49:16;5.85;;;1.90;;
56239;SDS011;42154;51.992;5.896;2023-01-01T02:59:26;5.70;;;2.05;;
56239;SDS011;42154;51.992;5.896;2023-01-01T03:02:24;7.72;;;2.30;;
56239;SDS011;42154;51.992;5.896;2023-01-01T03:05:30;6.03;;;1.70;;
56239;SDS011;42154;51.992;5.896;2023-01-01T03:08:24;7.80;;;1.83;;
56239;SDS011;42154;51.992;5.896;2023-01-01T03:11:10;4.45;;;1.85;;
56239;SDS011;42154;51.992;5.896;2023-01-01T03:16:26;8.27;;;1.83;;
56239;SDS011;42154;51.992;5.896;2023-01-01T03:21:50;6.47;;;2.42;;
56239;SDS011;42154;51.992;5.896;2023-01-01T03:24:25;10.68;;;1.90;;
56239;SDS011;42154;51.992;5.896;2023-01-01T03:27:08;5.53;;;1.52;;
56239;SDS011;42154;51.992;5.896;2023-01-01T03:29:41;6.15;;;1.80;;
56239;SDS011;42154;51.992;5.896;2023-01-01T03:32:10;5.25;;;1.75;;
56239;SDS011;42154;51.992;5.896;2023-01-01T03:34:42;6.78;;;2.10;;
56239;SDS011;42154;51.992;5.896;2023-01-01T03:37:16;5.38;;;1.85;;
56239;SDS011;42154;51.992;5.896;2023-01-01T03:39:53;4.43;;;1.48;;
56239;SDS011;42154;51.992;5.896;2023-01-01T03:45:00;5.43;;;1.50;;
56239;SDS011;42154;51.992;5.896;2023-01-01T03:47:37;4.70;;;1.38;;
56239;SDS011;42154;51.992;5.896;2023-01-01T03:50:03;4.35;;;1.80;;
56239;SDS011;42154;51.992;5.896;2023-01-01T03:55:08;6.40;;;1.60;;
56239;SDS011;42154;51.992;5.896;2023-01-01T03:57:56;7.20;;;1.60;;
56239;SDS011;42154;51.992;5.896;2023-01-01T04:00:44;5.78;;;1.63;;
56239;SDS011;42154;51.992;5.896;2023-01-01T04:03:21;5.80;;;1.40;;
56239;SDS011;42154;51.992;5.896;2023-01-01T04:05:49;4.38;;;1.80;;
56239;SDS011;42154;51.992;5.896;2023-01-01T04:08:15;4.35;;;1.70;;
56239;SDS011;42154;51.992;5.896;2023-01-01T04:10:42;5.57;;;1.33;;
56239;SDS011;42154;51.992;5.896;2023-01-01T04:13:10;6.32;;;1.50;;
56239;SDS011;42154;51.992;5.896;2023-01-01T04:15:35;5.68;;;1.30;;
56239;SDS011;42154;51.992;5.896;2023-01-01T04:18:01;6.35;;;1.38;;
56239;SDS011;42154;51.992;5.896;2023-01-01T04:20:28;5.97;;;1.67;;
56239;SDS011;42154;51.992;5.896;2023-01-01T04:22:57;6.13;;;1.45;;
56239;SDS011;42154;51.992;5.896;2023-01-01T04:25:23;7.63;;;1.70;;
56239;SDS011;42154;51.992;5.896;2023-01-01T04:27:49;5.97;;;1.60;;
56239;SDS011;42154;51.992;5.896;2023-01-01T04:30:15;5.75;;;1.48;;
56239;SDS011;42154;51.992;5.896;2023-01-01T04:32:42;5.85;;;1.45;;
56239;SDS011;42154;51.992;5.896;2023-01-01T04:35:08;6.18;;;1.35;;
56239;SDS011;42154;51.992;5.896;2023-01-01T04:37:37;5.70;;;1.73;;
56239;SDS011;42154;51.992;5.896;2023-01-01T04:40:04;5.10;;;1.40;;
56239;SDS011;42154;51.992;5.896;2023-01-01T04:42:30;9.45;;;1.27;;
56239;SDS011;42154;51.992;5.896;2023-01-01T04:44:56;10.52;;;1.77;;
56239;SDS011;42154;51.992;5.896;2023-01-01T04:47:22;8.07;;;1.30;;
56239;SDS011;42154;51.992;5.896;2023-01-01T04:49:48;4.60;;;1.20;;
56239;SDS011;42154;51.992;5.896;2023-01-01T04:52:14;6.55;;;1.38;;
56239;SDS011;42154;51.992;5.896;2023-01-01T04:54:39;7.13;;;1.80;;
56239;SDS011;42154;51.992;5.896;2023-01-01T04:57:05;2.97;;;1.20;;
56239;SDS011;42154;51.992;5.896;2023-01-01T04:59:31;6.10;;;1.30;;
56239;SDS011;42154;51.992;5.896;2023-01-01T05:01:57;8.23;;;1.70;;
56239;SDS011;42154;51.992;5.896;2023-01-01T05:04:22;4.88;;;1.20;;
56239;SDS011;42154;51.992;5.896;2023-01-01T05:06:48;6.57;;;1.30;;
56239;SDS011;42154;51.992;5.896;2023-01-01T05:09:14;8.18;;;1.30;;
56239;SDS011;42154;51.992;5.896;2023-01-01T05:11:40;4.22;;;1.13;;
56239;SDS011;42154;51.992;5.896;2023-01-01T05:14:06;3.97;;;1.77;;
56239;SDS011;42154;51.992;5.896;2023-01-01T05:16:33;7.25;;;1.33;;
56239;SDS011;42154;51.992;5.896;2023-01-01T05:19:01;4.72;;;1.40;;
56239;SDS011;42154;51.992;5.896;2023-01-01T05:21:28;6.05;;;1.35;;
56239;SDS011;42154;51.992;5.896;2023-01-01T05:23:57;5.07;;;1.27;;
56239;SDS011;42154;51.992;5.896;2023-01-01T05:26:25;6.38;;;1.30;;
56239;SDS011;42154;51.992;5.896;2023-01-01T05:28:53;6.88;;;1.88;;
56239;SDS011;42154;51.992;5.896;2023-01-01T05:31:20;7.38;;;2.15;;
56239;SDS011;42154;51.992;5.896;2023-01-01T05:33:48;8.52;;;1.95;;
56239;SDS011;42154;51.992;5.896;2023-01-01T05:36:15;8.25;;;1.70;;
56239;SDS011;42154;51.992;5.896;2023-01-01T05:38:43;5.60;;;1.40;;
56239;SDS011;42154;51.992;5.896;2023-01-01T05:41:09;6.65;;;1.45;;
56239;SDS011;42154;51.992;5.896;2023-01-01T05:43:37;5.82;;;1.45;;
56239;SDS011;42154;51.992;5.896;2023-01-01T05:46:04;3.03;;;1.10;;
56239;SDS011;42154;51.992;5.896;2023-01-01T05:48:33;9.23;;;1.77;;
56239;SDS011;42154;51.992;5.896;2023-01-01T05:51:02;5.95;;;1.67;;
56239;SDS011;42154;51.992;5.896;2023-01-01T05:53:30;7.47;;;1.52;;
56239;SDS011;42154;51.992;5.896;2023-01-01T05:55:56;3.78;;;1.02;;
56239;SDS011;42154;51.992;5.896;2023-01-01T05:58:23;5.68;;;1.13;;
56239;SDS011;42154;51.992;5.896;2023-01-01T06:00:49;5.03;;;1.20;;
56239;SDS011;42154;51.992;5.896;2023-01-01T06:03:15;4.90;;;1.13;;
56239;SDS011;42154;51.992;5.896;2023-01-01T06:05:41;8.30;;;1.13;;
56239;SDS011;42154;51.992;5.896;2023-01-01T06:08:06;5.30;;;1.55;;
56239;SDS011;42154;51.992;5.896;2023-01-01T06:10:32;5.00;;;1.13;;
56239;SDS011;42154;51.992;5.896;2023-01-01T06:12:58;5.03;;;1.65;;
56239;SDS011;42154;51.992;5.896;2023-01-01T06:15:24;4.55;;;1.08;;
56239;SDS011;42154;51.992;5.896;2023-01-01T06:17:50;3.88;;;1.23;;
56239;SDS011;42154;51.992;5.896;2023-01-01T06:20:16;6.47;;;1.25;;
56239;SDS011;42154;51.992;5.896;2023-01-01T06:22:42;3.95;;;1.15;;
56239;SDS011;42154;51.992;5.896;2023-01-01T06:25:08;3.47;;;1.10;;
56239;SDS011;42154;51.992;5.896;2023-01-01T06:27:34;3.55;;;0.95;;
56239;SDS011;42154;51.992;5.896;2023-01-01T06:30:04;4.70;;;0.85;;
56239;SDS011;42154;51.992;5.896;2023-01-01T06:32:31;2.70;;;0.87;;
56239;SDS011;42154;51.992;5.896;2023-01-01T06:34:57;4.50;;;0.88;;
56239;SDS011;42154;51.992;5.896;2023-01-01T06:37:23;5.53;;;1.38;;
56239;SDS011;42154;51.992;5.896;2023-01-01T06:39:48;7.53;;;1.10;;
56239;SDS011;42154;51.992;5.896;2023-01-01T06:42:14;5.15;;;1.27;;
56239;SDS011;42154;51.992;5.896;2023-01-01T06:44:40;2.97;;;0.95;;
56239;SDS011;42154;51.992;5.896;2023-01-01T06:47:06;4.30;;;1.30;;
56239;SDS011;42154;51.992;5.896;2023-01-01T06:49:32;3.28;;;1.00;;
56239;SDS011;42154;51.992;5.896;2023-01-01T06:51:58;4.13;;;1.30;;
56239;SDS011;42154;51.992;5.896;2023-01-01T06:54:23;5.95;;;1.17;;
56239;SDS011;42154;51.992;5.896;2023-01-01T06:56:49;7.93;;;1.50;;
56239;SDS011;42154;51.992;5.896;2023-01-01T06:59:15;5.07;;;1.20;;
56239;SDS011;42154;51.992;5.896;2023-01-01T07:01:41;6.60;;;1.83;;
56239;SDS011;42154;51.992;5.896;2023-01-01T07:04:10;4.63;;;1.30;;
56239;SDS011;42154;51.992;5.896;2023-01-01T07:06:37;5.63;;;1.30;;
56239;SDS011;42154;51.992;5.896;2023-01-01T07:09:04;4.50;;;0.98;;
56239;SDS011;42154;51.992;5.896;2023-01-01T07:11:30;4.10;;;1.20;;
56239;SDS011;42154;51.992;5.896;2023-01-01T07:13:56;4.55;;;1.08;;
56239;SDS011;42154;51.992;5.896;2023-01-01T07:16:22;4.05;;;1.10;;
56239;SDS011;42154;51.992;5.896;2023-01-01T07:18:49;4.55;;;0.90;;
56239;SDS011;42154;51.992;5.896;2023-01-01T07:21:29;4.57;;;1.10;;
56239;SDS011;42154;51.992;5.896;2023-01-01T07:23:56;4.80;;;0.68;;
56239;SDS011;42154;51.992;5.896;2023-01-01T07:26:24;2.70;;;0.70;;
56239;SDS011;42154;51.992;5.896;2023-01-01T07:28:51;4.20;;;0.80;;
56239;SDS011;42154;51.992;5.896;2023-01-01T07:31:17;2.13;;;0.80;;
56239;SDS011;42154;51.992;5.896;2023-01-01T07:33:43;3.55;;;0.63;;
56239;SDS011;42154;51.992;5.896;2023-01-01T07:36:09;1.65;;;0.50;;
56239;SDS011;42154;51.992;5.896;2023-01-01T07:38:35;3.90;;;0.60;;
56239;SDS011;42154;51.992;5.896;2023-01-01T07:41:00;3.92;;;0.55;;
56239;SDS011;42154;51.992;5.896;2023-01-01T07:43:26;1.30;;;0.40;;
56239;SDS011;42154;51.992;5.896;2023-01-01T07:45:52;4.05;;;0.75;;
56239;SDS011;42154;51.992;5.896;2023-01-01T07:48:17;4.15;;;0.80;;
56239;SDS011;42154;51.992;5.896;2023-01-01T07:50:43;3.90;;;0.70;;
56239;SDS011;42154;51.992;5.896;2023-01-01T07:53:10;2.42;;;0.70;;
56239;SDS011;42154;51.992;5.896;2023-01-01T07:55:36;2.33;;;0.55;;
56239;SDS011;42154;51.992;5.896;2023-01-01T07:58:02;3.58;;;0.95;;
56239;SDS011;42154;51.992;5.896;2023-01-01T08:00:28;4.30;;;0.68;;
56239;SDS011;42154;51.992;5.896;2023-01-01T08:02:54;4.20;;;0.47;;
56239;SDS011;42154;51.992;5.896;2023-01-01T08:05:20;5.45;;;0.82;;
56239;SDS011;42154;51.992;5.896;2023-01-01T08:07:46;4.32;;;0.68;;
56239;SDS011;42154;51.992;5.896;2023-01-01T08:10:13;3.78;;;0.60;;
56239;SDS011;42154;51.992;5.896;2023-01-01T08:12:40;4.40;;;0.77;;
56239;SDS011;42154;51.992;5.896;2023-01-01T08:15:06;4.00;;;0.68;;
56239;SDS011;42154;51.992;5.896;2023-01-01T08:17:32;2.97;;;0.80;;
56239;SDS011;42154;51.992;5.896;2023-01-01T08:19:58;3.92;;;1.23;;
56239;SDS011;42154;51.992;5.896;2023-01-01T08:22:24;2.47;;;0.65;;
56239;SDS011;42154;51.992;5.896;2023-01-01T08:24:49;6.07;;;0.90;;
56239;SDS011;42154;51.992;5.896;2023-01-01T08:27:15;5.82;;;1.05;;
56239;SDS011;42154;51.992;5.896;2023-01-01T08:29:41;5.35;;;0.70;;
56239;SDS011;42154;51.992;5.896;2023-01-01T08:32:08;4.97;;;0.90;;
56239;SDS011;42154;51.992;5.896;2023-01-01T08:34:34;4.30;;;0.70;;
56239;SDS011;42154;51.992;5.896;2023-01-01T08:37:00;1.60;;;0.50;;
56239;SDS011;42154;51.992;5.896;2023-01-01T08:39:26;1.98;;;0.68;;
56239;SDS011;42154;51.992;5.896;2023-01-01T08:41:52;4.53;;;0.80;;
56239;SDS011;42154;51.992;5.896;2023-01-01T08:44:18;4.35;;;0.80;;
56239;SDS011;42154;51.992;5.896;2023-01-01T08:46:44;2.35;;;0.80;;
56239;SDS011;42154;51.992;5.896;2023-01-01T08:49:09;4.93;;;0.98;;
56239;SDS011;42154;51.992;5.896;2023-01-01T08:51:35;3.90;;;0.70;;
56239;SDS011;42154;51.992;5.896;2023-01-01T08:54:01;4.10;;;0.80;;
56239;SDS011;42154;51.992;5.896;2023-01-01T08:56:27;4.00;;;0.63;;
56239;SDS011;42154;51.992;5.896;2023-01-01T08:58:53;5.35;;;0.95;;
56239;SDS011;42154;51.992;5.896;2023-01-01T09:01:18;4.90;;;0.70;;
56239;SDS011;42154;51.992;5.896;2023-01-01T09:03:46;5.50;;;1.15;;
56239;SDS011;42154;51.992;5.896;2023-01-01T09:06:12;5.35;;;1.08;;
56239;SDS011;42154;51.992;5.896;2023-01-01T09:08:39;4.20;;;1.08;;
56239;SDS011;42154;51.992;5.896;2023-01-01T09:11:04;2.78;;;0.95;;
56239;SDS011;42154;51.992;5.896;2023-01-01T09:13:30;4.55;;;1.17;;
56239;SDS011;42154;51.992;5.896;2023-01-01T09:15:56;6.30;;;1.17;;
56239;SDS011;42154;51.992;5.896;2023-01-01T09:18:22;3.90;;;1.08;;
56239;SDS011;42154;51.992;5.896;2023-01-01T09:20:48;7.03;;;1.33;;
56239;SDS011;42154;51.992;5.896;2023-01-01T09:23:14;5.03;;;1.52;;
56239;SDS011;42154;51.992;5.896;2023-01-01T09:25:40;5.13;;;1.25;;
56239;SDS011;42154;51.992;5.896;2023-01-01T09:28:07;5.13;;;1.25;;
56239;SDS011;42154;51.992;5.896;2023-01-01T09:30:35;5.82;;;1.17;;
56239;SDS011;42154;51.992;5.896;2023-01-01T09:33:01;5.68;;;1.42;;
56239;SDS011;42154;51.992;5.896;2023-01-01T09:35:28;4.10;;;1.08;;
56239;SDS011;42154;51.992;5.896;2023-01-01T09:37:54;5.00;;;1.40;;
56239;SDS011;42154;51.992;5.896;2023-01-01T09:42:50;4.57;;;1.20;;
56239;SDS011;42154;51.992;5.896;2023-01-01T09:45:29;7.50;;;1.30;;
56239;SDS011;42154;51.992;5.896;2023-01-01T09:48:04;4.82;;;1.00;;
56239;SDS011;42154;51.992;5.896;2023-01-01T09:50:38;5.15;;;1.35;;
56239;SDS011;42154;51.992;5.896;2023-01-01T09:53:30;6.70;;;1.67;;
56239;SDS011;42154;51.992;5.896;2023-01-01T09:56:18;3.80;;;1.08;;
56239;SDS011;42154;51.992;5.896;2023-01-01T09:58:48;6.07;;;1.30;;
56239;SDS011;42154;51.992;5.896;2023-01-01T10:04:04;6.45;;;1.13;;
56239;SDS011;42154;51.992;5.896;2023-01-01T10:07:19;6.70;;;1.25;;
56239;SDS011;42154;51.992;5.896;2023-01-01T10:15:55;11.73;;;1.85;;
56239;SDS011;42154;51.992;5.896;2023-01-01T10:18:26;7.72;;;1.92;;
56239;SDS011;42154;51.992;5.896;2023-01-01T10:20:58;6.30;;;1.50;;
56239;SDS011;42154;51.992;5.896;2023-01-01T10:24:08;7.72;;;2.10;;
56239;SDS011;42154;51.992;5.896;2023-01-01T10:26:27;8.50;;;2.05;;
56239;SDS011;42154;51.992;5.896;2023-01-01T10:31:30;7.28;;;1.90;;
56239;SDS011;42154;51.992;5.896;2023-01-01T10:36:53;8.63;;;1.80;;
56239;SDS011;42154;51.992;5.896;2023-01-01T10:39:21;9.60;;;1.70;;
56239;SDS011;42154;51.992;5.896;2023-01-01T10:41:48;7.00;;;2.08;;
56239;SDS011;42154;51.992;5.896;2023-01-01T10:44:15;7.40;;;1.75;;
56239;SDS011;42154;51.992;5.896;2023-01-01T10:46:45;7.75;;;1.23;;
56239;SDS011;42154;51.992;5.896;2023-01-01T10:49:14;7.65;;;1.77;;
56239;SDS011;42154;51.992;5.896;2023-01-01T10:51:41;6.05;;;2.35;;
56239;SDS011;42154;51.992;5.896;2023-01-01T10:59:51;5.28;;;1.08;;
56239;SDS011;42154;51.992;5.896;2023-01-01T11:02:18;7.03;;;1.50;;
56239;SDS011;42154;51.992;5.896;2023-01-01T11:04:46;9.35;;;2.10;;
56239;SDS011;42154;51.992;5.896;2023-01-01T11:07:17;7.25;;;1.65;;
56239;SDS011;42154;51.992;5.896;2023-01-01T11:09:54;6.45;;;1.85;;
56239;SDS011;42154;51.992;5.896;2023-01-01T11:12:24;9.50;;;1.75;;
56239;SDS011;42154;51.992;5.896;2023-01-01T11:14:54;5.90;;;1.38;;
56239;SDS011;42154;51.992;5.896;2023-01-01T11:17:22;5.53;;;1.48;;
56239;SDS011;42154;51.992;5.896;2023-01-01T11:19:57;4.50;;;1.30;;
56239;SDS011;42154;51.992;5.896;2023-01-01T11:22:42;7.25;;;1.83;;
56239;SDS011;42154;51.992;5.896;2023-01-01T11:25:29;6.75;;;1.27;;
56239;SDS011;42154;51.992;5.896;2023-01-01T11:31:01;5.18;;;1.48;;
56239;SDS011;42154;51.992;5.896;2023-01-01T11:33:35;7.00;;;2.00;;
56239;SDS011;42154;51.992;5.896;2023-01-01T11:36:11;10.00;;;2.03;;
56239;SDS011;42154;51.992;5.896;2023-01-01T11:38:46;4.00;;;1.70;;
56239;SDS011;42154;51.992;5.896;2023-01-01T11:41:14;5.82;;;1.85;;
56239;SDS011;42154;51.992;5.896;2023-01-01T11:43:43;5.53;;;1.70;;
56239;SDS011;42154;51.992;5.896;2023-01-01T11:46:12;5.35;;;1.90;;
56239;SDS011;42154;51.992;5.896;2023-01-01T11:48:47;4.82;;;1.88;;
56239;SDS011;42154;51.992;5.896;2023-01-01T11:51:30;8.02;;;2.30;;
56239;SDS011;42154;51.992;5.896;2023-01-01T11:54:10;5.68;;;2.28;;
56239;SDS011;42154;51.992;5.896;2023-01-01T11:56:48;7.30;;;2.40;;
56239;SDS011;42154;51.992;5.896;2023-01-01T11:59:24;7.82;;;2.50;;
56239;SDS011;42154;51.992;5.896;2023-01-01T12:07:30;8.40;;;2.90;;
56239;SDS011;42154;51.992;5.896;2023-01-01T12:10:02;7.85;;;2.45;;
56239;SDS011;42154;51.992;5.896;2023-01-01T12:12:41;8.80;;;2.95;;
56239;SDS011;42154;51.992;5.896;2023-01-01T12:15:23;7.68;;;3.00;;
56239;SDS011;42154;51.992;5.896;2023-01-01T12:18:06;9.48;;;3.03;;
56239;SDS011;42154;51.992;5.896;2023-01-01T12:20:55;8.02;;;3.33;;
56239;SDS011;42154;51.992;5.896;2023-01-01T12:23:28;10.20;;;3.97;;
56239;SDS011;42154;51.992;5.896;2023-01-01T12:31:23;7.60;;;3.58;;
56239;SDS011;42154;51.992;5.896;2023-01-01T12:39:58;7.95;;;2.92;;
56239;SDS011;42154;51.992;5.896;2023-01-01T12:42:55;9.70;;;2.38;;
56239;SDS011;42154;51.992;5.896;2023-01-01T12:50:50;8.35;;;3.30;;
56239;SDS011;42154;51.992;5.896;2023-01-01T12:56:12;10.10;;;2.75;;
56239;SDS011;42154;51.992;5.896;2023-01-01T12:59:08;9.60;;;3.30;;
56239;SDS011;42154;51.992;5.896;2023-01-01T13:01:38;11.95;;;3.30;;
56239;SDS011;42154;51.992;5.896;2023-01-01T13:04:17;6.43;;;2.63;;
56239;SDS011;42154;51.992;5.896;2023-01-01T13:06:49;10.25;;;2.95;;
56239;SDS011;42154;51.992;5.896;2023-01-01T13:09:28;7.38;;;2.72;;
56239;SDS011;42154;51.992;5.896;2023-01-01T13:12:16;10.00;;;2.17;;
56239;SDS011;42154;51.992;5.896;2023-01-01T13:14:46;10.02;;;2.75;;
56239;SDS011;42154;51.992;5.896;2023-01-01T13:17:20;8.95;;;2.25;;
56239;SDS011;42154;51.992;5.896;2023-01-01T13:20:36;8.52;;;2.85;;
56239;SDS011;42154;51.992;5.896;2023-01-01T13:22:40;10.75;;;3.47;;
56239;SDS011;42154;51.992;5.896;2023-01-01T14:02:46;7.93;;;2.47;;
56239;SDS011;42154;51.992;5.896;2023-01-01T14:05:35;8.07;;;2.70;;
56239;SDS011;42154;51.992;5.896;2023-01-01T14:08:23;7.85;;;2.50;;
56239;SDS011;42154;51.992;5.896;2023-01-01T14:10:52;7.20;;;2.67;;
56239;SDS011;42154;51.992;5.896;2023-01-01T14:13:17;12.30;;;2.58;;
56239;SDS011;42154;51.992;5.896;2023-01-01T14:18:15;10.18;;;2.22;;
56239;SDS011;42154;51.992;5.896;2023-01-01T14:20:50;8.73;;;2.83;;
56239;SDS011;42154;51.992;5.896;2023-01-01T14:25:59;9.80;;;2.80;;
56239;SDS011;42154;51.992;5.896;2023-01-01T14:28:29;5.40;;;2.20;;
56239;SDS011;42154;51.992;5.896;2023-01-01T14:30:57;6.20;;;2.05;;
56239;SDS011;42154;51.992;5.896;2023-01-01T14:33:29;5.95;;;1.85;;
56239;SDS011;42154;51.992;5.896;2023-01-01T14:36:00;10.63;;;2.30;;
56239;SDS011;42154;51.992;5.896;2023-01-01T14:38:28;6.45;;;2.08;;
56239;SDS011;42154;51.992;5.896;2023-01-01T14:41:10;6.63;;;2.17;;
56239;SDS011;42154;51.992;5.896;2023-01-01T14:43:40;10.52;;;2.85;;
56239;SDS011;42154;51.992;5.896;2023-01-01T14:46:13;8.07;;;2.08;;
56239;SDS011;42154;51.992;5.896;2023-01-01T14:48:44;7.40;;;2.15;;
56239;SDS011;42154;51.992;5.896;2023-01-01T14:51:21;7.65;;;2.50;;
56239;SDS011;42154;51.992;5.896;2023-01-01T14:53:49;5.75;;;2.20;;
56239;SDS011;42154;51.992;5.896;2023-01-01T14:56:35;6.30;;;2.30;;
56239;SDS011;42154;51.992;5.896;2023-01-01T15:01:39;5.70;;;2.33;;
56239;SDS011;42154;51.992;5.896;2023-01-01T15:04:39;11.18;;;2.70;;
56239;SDS011;42154;51.992;5.896;2023-01-01T15:06:58;7.05;;;2.65;;
56239;SDS011;42154;51.992;5.896;2023-01-01T15:09:25;6.55;;;2.42;;
56239;SDS011;42154;51.992;5.896;2023-01-01T15:11:53;11.55;;;2.90;;
56239;SDS011;42154;51.992;5.896;2023-01-01T15:14:31;9.50;;;2.88;;
56239;SDS011;42154;51.992;5.896;2023-01-01T15:17:06;9.50;;;2.50;;
56239;SDS011;42154;51.992;5.896;2023-01-01T15:19:35;8.00;;;2.95;;
56239;SDS011;42154;51.992;5.896;2023-01-01T15:24:48;7.38;;;2.28;;
56239;SDS011;42154;51.992;5.896;2023-01-01T15:27:20;7.65;;;2.38;;
56239;SDS011;42154;51.992;5.896;2023-01-01T15:29:58;10.95;;;2.60;;
56239;SDS011;42154;51.992;5.896;2023-01-01T15:32:29;6.97;;;2.40;;
56239;SDS011;42154;51.992;5.896;2023-01-01T15:35:04;8.60;;;2.35;;
56239;SDS011;42154;51.992;5.896;2023-01-01T15:42:39;10.88;;;2.63;;
56239;SDS011;42154;51.992;5.896;2023-01-01T15:45:22;7.22;;;2.63;;
56239;SDS011;42154;51.992;5.896;2023-01-01T15:52:59;7.35;;;2.13;;
56239;SDS011;42154;51.992;5.896;2023-01-01T15:55:28;8.65;;;2.20;;
56239;SDS011;42154;51.992;5.896;2023-01-01T15:57:57;6.75;;;2.20;;
56239;SDS011;42154;51.992;5.896;2023-01-01T16:00:25;6.57;;;2.55;;
56239;SDS011;42154;51.992;5.896;2023-01-01T16:02:54;6.95;;;2.15;;
56239;SDS011;42154;51.992;5.896;2023-01-01T16:05:44;10.57;;;2.58;;
56239;SDS011;42154;51.992;5.896;2023-01-01T16:08:17;10.40;;;3.20;;
56239;SDS011;42154;51.992;5.896;2023-01-01T16:10:46;10.45;;;3.53;;
56239;SDS011;42154;51.992;5.896;2023-01-01T16:13:12;8.55;;;3.03;;
56239;SDS011;42154;51.992;5.896;2023-01-01T16:15:51;13.73;;;4.57;;
56239;SDS011;42154;51.992;5.896;2023-01-01T16:18:19;8.40;;;3.40;;
56239;SDS011;42154;51.992;5.896;2023-01-01T16:20:52;11.25;;;4.70;;
56239;SDS011;42154;51.992;5.896;2023-01-01T16:23:18;14.40;;;6.20;;
56239;SDS011;42154;51.992;5.896;2023-01-01T16:25:44;13.88;;;5.60;;
56239;SDS011;42154;51.992;5.896;2023-01-01T16:28:09;12.88;;;5.55;;
56239;SDS011;42154;51.992;5.896;2023-01-01T16:30:35;10.93;;;4.25;;
56239;SDS011;42154;51.992;5.896;2023-01-01T16:33:01;9.68;;;3.83;;
56239;SDS011;42154;51.992;5.896;2023-01-01T16:35:30;10.40;;;3.55;;
56239;SDS011;42154;51.992;5.896;2023-01-01T16:37:55;11.45;;;4.60;;
56239;SDS011;42154;51.992;5.896;2023-01-01T16:40:21;9.77;;;4.18;;
56239;SDS011;42154;51.992;5.896;2023-01-01T16:42:47;10.02;;;4.28;;
56239;SDS011;42154;51.992;5.896;2023-01-01T16:45:14;9.50;;;4.47;;
56239;SDS011;42154;51.992;5.896;2023-01-01T16:47:43;8.85;;;3.58;;
56239;SDS011;42154;51.992;5.896;2023-01-01T16:50:10;10.82;;;4.40;;
56239;SDS011;42154;51.992;5.896;2023-01-01T16:52:36;8.35;;;3.88;;
56239;SDS011;42154;51.992;5.896;2023-01-01T16:55:01;9.93;;;4.07;;
56239;SDS011;42154;51.992;5.896;2023-01-01T16:57:27;10.63;;;4.05;;
56239;SDS011;42154;51.992;5.896;2023-01-01T16:59:53;8.85;;;3.45;;
56239;SDS011;42154;51.992;5.896;2023-01-01T17:02:20;11.05;;;4.20;;
56239;SDS011;42154;51.992;5.896;2023-01-01T17:04:46;11.98;;;3.83;;
56239;SDS011;42154;51.992;5.896;2023-01-01T17:07:11;8.55;;;3.60;;
56239;SDS011;42154;51.992;5.896;2023-01-01T17:09:37;8.88;;;3.90;;
56239;SDS011;42154;51.992;5.896;2023-01-01T17:12:03;9.68;;;4.38;;
56239;SDS011;42154;51.992;5.896;2023-01-01T17:14:29;10.55;;;4.13;;
56239;SDS011;42154;51.992;5.896;2023-01-01T17:16:55;7.45;;;4.43;;
56239;SDS011;42154;51.992;5.896;2023-01-01T17:19:20;14.07;;;4.57;;
56239;SDS011;42154;51.992;5.896;2023-01-01T17:21:46;11.38;;;4.28;;
56239;SDS011;42154;51.992;5.896;2023-01-01T17:24:13;12.85;;;4.53;;
56239;SDS011;42154;51.992;5.896;2023-01-01T17:26:40;9.52;;;3.90;;
56239;SDS011;42154;51.992;5.896;2023-01-01T17:29:06;9.82;;;4.28;;